Du har inga inställningar för hoppväder.nu

Hoppväder.nu

Senast uppdaterat 23:47

UTC-tid

2019-10-20 kl. 21:47


Sol och måne

Solen går upp 8:00 och går ner 18:14 (beräknade cirkatider)
Nästa fullmåne blir om 23 dagar (2019-11-12)


Väderstation: Skydive Mohed

Väderrapport från: 2019-10-20 kl 23:45:45
Vindriktning: 297°
Vinden har varierat mellan 270° och 360° de senaste 10 minuterna.
Vindstyrka: 3,4 m/s
Byvind: 4,1 m/s
Lufttryck: 1023,6 hPa
Temperatur: 2,4°C, känns som: -1,9°C
Daggpunkt: 0,5°C
Luftfuktighet: 87%
Molnbas: 242 m




METAR

ESSD (Borlänge)
(27 minuter sedan)
ESSD 202120Z AUTO 35005KT 6000 BR OVC003/// 03/02 Q1014=



ESNN (Sundsvall-Härnösand)
(27 minuter sedan)
ESNN 202120Z 33009KT 9999 FEW015 BKN021 BKN028 01/00 Q1016=












TAF

ESSD (Borlänge)
ESSD



ESNN (Sundsvall-Härnösand)
(257 minuter sedan)
ESNN 201730Z 2018/2022 32009KT 6000 -RASN BKN025 TEMPO 2018/2021 4000 BKN013=





Kodnycklar till TAF och METAR






LHP

(Mohed är område D2b i Sydöstra delen)





Spotting

Hur fungerar spotthjälpen och Vindkartan?

Markvind är ca 0 m/s.



Vindkartan

Senast uppdaterad 23:47


All data kommer från LFV.se,
och från SÖFKs väderstation